Time;durP1;ratioP1;P1;durP2;ratioP2;P2;SDS_P1;SDS_P2;PMS_P1;PMS_P2;Temp;Humidity;BMP_temperature;BMP_pressure;BME280_temperature;BME280_humidity;BME280_pressure;Samples;Min_cycle;Max_cycle;Signal;HPM_P1;HPM_P2
2021/03/18 00:00:58;;;;;;;1.23;1.23;;;;;;;0.06;99.14;101426.88;5073807;28;20420;-74
2021/03/18 00:03:28;;;;;;;0.90;0.87;;;;;;;0.09;98.96;101426.44;5073689;28;20581;-74
2021/03/18 00:05:55;;;;;;;2.30;2.20;;;;;;;0.02;99.29;101428.38;5073976;28;20409;-74
2021/03/18 00:08:21;;;;;;;1.03;1.03;;;;;;;-0.09;99.08;101436.06;5073284;28;20423;-74
2021/03/18 00:10:48;;;;;;;3.33;2.57;;;;;;;-0.12;98.72;101430.31;5073574;28;20468;-74
2021/03/18 00:13:17;;;;;;;2.70;2.50;;;;;;;-0.10;99.09;101433.59;5073149;28;20429;-74
2021/03/18 00:15:43;;;;;;;1.60;1.50;;;;;;;-0.15;98.96;101426.16;5073452;28;20417;-74
2021/03/18 00:18:10;;;;;;;1.77;1.67;;;;;;;-0.23;98.59;101429.13;5073356;28;20893;-74
2021/03/18 00:20:35;;;;;;;0.77;0.77;;;;;;;-0.28;98.84;101428.13;5055256;28;20417;-74
2021/03/18 00:23:02;;;;;;;2.17;1.97;;;;;;;-0.24;99.00;101435.53;5054334;28;20417;-74
2021/03/18 00:25:28;;;;;;;1.83;1.83;;;;;;;-0.26;99.13;101431.44;5073143;28;20185;-74
2021/03/18 00:27:53;;;;;;;2.70;2.27;;;;;;;-0.31;98.88;101424.00;5072840;28;20413;-74
2021/03/18 00:30:20;;;;;;;2.93;2.30;;;;;;;-0.29;99.12;101424.59;5072873;28;20220;-74
2021/03/18 00:32:46;;;;;;;1.97;1.67;;;;;;;-0.27;98.81;101425.25;5072011;28;20248;-74
2021/03/18 00:35:13;;;;;;;1.47;1.37;;;;;;;-0.28;99.49;101423.59;5073068;28;20960;-74
2021/03/18 00:37:40;;;;;;;2.10;2.00;;;;;;;-0.30;99.29;101431.00;5072695;28;20427;-74
2021/03/18 00:40:13;;;;;;;2.57;2.37;;;;;;;-0.21;99.17;101426.22;5072836;28;20421;-74
2021/03/18 00:42:52;;;;;;;2.30;2.20;;;;;;;-0.24;99.40;101424.81;5073136;28;20507;-74
2021/03/18 00:45:18;;;;;;;0.83;0.83;;;;;;;-0.28;99.37;101420.91;5054723;28;21042;-73
2021/03/18 00:47:44;;;;;;;2.27;2.17;;;;;;;-0.26;99.31;101426.88;5072602;28;20405;-73
2021/03/18 00:50:12;;;;;;;1.17;1.13;;;;;;;-0.13;99.90;101424.13;5072647;28;20468;-73
2021/03/18 00:52:37;;;;;;;2.40;2.10;;;;;;;-0.10;99.47;101426.38;5072731;28;20421;-74
2021/03/18 00:55:04;;;;;;;4.20;3.37;;;;;;;-0.03;99.90;101418.25;5072516;28;20409;-73
2021/03/18 00:57:29;;;;;;;0.70;0.70;;;;;;;-0.03;99.72;101418.25;5072274;28;20247;-73
2021/03/18 00:59:54;;;;;;;0.97;0.80;;;;;;;0.02;99.15;101421.13;5072059;28;20986;-74
2021/03/18 01:02:20;;;;;;;1.83;1.83;;;;;;;0.05;99.68;101426.06;5054481;28;20178;-73
2021/03/18 01:04:47;;;;;;;1.73;1.67;;;;;;;0.03;99.58;101425.47;5054427;28;20179;-73
2021/03/18 01:07:13;;;;;;;2.37;2.23;;;;;;;0.01;99.18;101424.84;5072262;28;20232;-73
2021/03/18 01:09:38;;;;;;;3.27;3.07;;;;;;;0.00;99.61;101425.91;5072294;28;20820;-74
2021/03/18 01:12:04;;;;;;;3.80;3.53;;;;;;;-0.02;99.22;101434.16;5045805;28;20647;-73
2021/03/18 01:14:29;;;;;;;1.77;1.67;;;;;;;0.00;99.32;101431.28;5052131;28;20183;-74
2021/03/18 01:16:56;;;;;;;3.47;3.17;;;;;;;0.04;99.32;101428.97;5051611;28;20179;-73
2021/03/18 01:19:22;;;;;;;1.67;1.57;;;;;;;0.07;99.15;101433.91;5052073;28;20268;-73
2021/03/18 01:21:50;;;;;;;3.17;3.00;;;;;;;0.03;99.05;101440.75;5051660;28;20467;-74
2021/03/18 01:24:16;;;;;;;3.57;3.27;;;;;;;-0.04;98.86;101430.84;5034142;28;20186;-73
2021/03/18 01:26:43;;;;;;;2.33;2.23;;;;;;;-0.09;98.86;101435.25;5051661;28;20417;-73
2021/03/18 01:29:09;;;;;;;3.27;3.07;;;;;;;-0.12;98.33;101433.81;5051693;28;20195;-73
2021/03/18 01:31:35;;;;;;;2.57;2.47;;;;;;;-0.17;98.60;101425.56;5051891;28;20417;-73
2021/03/18 01:34:01;;;;;;;2.00;1.90;;;;;;;-0.22;98.77;101428.09;5051986;28;20440;-73
2021/03/18 01:36:28;;;;;;;4.43;2.97;;;;;;;-0.28;99.03;101420.91;5051448;28;20182;-73
2021/03/18 01:38:54;;;;;;;1.60;1.50;;;;;;;-0.24;99.13;101419.44;5051856;28;20815;-73
2021/03/18 01:41:21;;;;;;;1.33;1.23;;;;;;;-0.21;99.11;101419.00;5051806;28;20432;-73
2021/03/18 01:43:47;;;;;;;2.47;2.37;;;;;;;-0.01;99.91;101411.63;5051660;28;20258;-73
2021/03/18 01:46:14;;;;;;;4.20;3.97;;;;;;;-0.02;99.04;101409.16;5051351;28;20483;-73
2021/03/18 01:48:40;;;;;;;1.93;1.83;;;;;;;-0.01;98.94;101406.25;5051591;28;20406;-73
2021/03/18 01:51:06;;;;;;;3.73;3.50;;;;;;;0.10;99.05;101417.34;5051616;28;20465;-74
2021/03/18 01:53:33;;;;;;;1.93;1.83;;;;;;;0.19;99.74;101410.66;5051422;28;20428;-73
2021/03/18 01:56:00;;;;;;;2.93;2.77;;;;;;;0.25;99.26;101412.47;5051251;28;20175;-73
2021/03/18 01:58:26;;;;;;;2.23;1.83;;;;;;;0.32;99.07;101405.19;5051118;28;20506;-73
2021/03/18 02:00:57;;;;;;;0.33;0.33;;;;;;;0.35;99.00;101406.59;5051350;28;20418;-73
2021/03/18 02:03:23;;;;;;;1.43;1.33;;;;;;;0.39;98.48;101400.56;5051344;28;20444;-74
2021/03/18 02:05:49;;;;;;;0.83;0.83;;;;;;;0.43;98.67;101401.75;5051428;28;20441;-73
2021/03/18 02:08:15;;;;;;;0.40;0.40;;;;;;;0.44;98.00;101403.44;5050867;28;20764;-73
2021/03/18 02:10:41;;;;;;;2.83;2.70;;;;;;;0.43;98.13;101404.44;5051032;28;20636;-73
2021/03/18 02:13:09;;;;;;;2.03;1.93;;;;;;;0.45;97.86;101399.69;5051124;28;20417;-73
2021/03/18 02:15:42;;;;;;;1.00;1.00;;;;;;;0.46;97.93;101401.34;5050973;28;20426;-73
2021/03/18 02:18:47;;;;;;;0.97;0.97;;;;;;;0.47;97.22;101394.09;5050686;28;20432;-73
2021/03/18 02:21:37;;;;;;;0.33;0.33;;;;;;;0.45;97.37;101394.31;5050894;28;20415;-73
2021/03/18 02:24:27;;;;;;;1.17;1.17;;;;;;;0.43;97.04;101404.44;5050064;28;20758;-73
2021/03/18 02:27:22;;;;;;;0.57;0.57;;;;;;;0.42;97.60;101393.91;5051092;28;20425;-74
2021/03/18 02:30:24;;;;;;;1.63;1.53;;;;;;;0.41;97.19;101390.41;5050777;28;20552;-74
2021/03/18 02:33:08;;;;;;;1.23;1.23;;;;;;;0.40;97.37;101390.63;5050845;28;20516;-73
2021/03/18 02:35:43;;;;;;;0.67;0.67;;;;;;;0.38;97.23;101385.47;5050792;28;21003;-73
2021/03/18 02:38:23;;;;;;;4.80;3.20;;;;;;;0.38;97.11;101392.72;5050354;28;20414;-74
2021/03/18 02:40:56;;;;;;;8.27;4.50;;;;;;;0.34;97.52;101378.91;5050649;28;20847;-73
2021/03/18 02:43:24;;;;;;;3.43;3.23;;;;;;;0.34;97.84;101370.84;5050658;28;20414;-74
2021/03/18 02:45:54;;;;;;;3.43;3.17;;;;;;;0.33;97.67;101363.81;5050563;28;20414;-74
2021/03/18 02:48:26;;;;;;;5.47;3.23;;;;;;;0.31;97.63;101365.91;5050370;28;20414;-74
2021/03/18 02:50:53;;;;;;;1.60;1.50;;;;;;;0.28;97.72;101367.16;5050387;28;20473;-73
2021/03/18 02:53:22;;;;;;;1.43;1.37;;;;;;;0.25;97.52;101356.03;5050588;28;20511;-73
2021/03/18 02:55:48;;;;;;;4.73;2.00;;;;;;;0.24;97.31;101349.84;5035910;28;20421;-74
2021/03/18 02:58:20;;;;;;;3.40;3.10;;;;;;;0.18;97.62;101352.59;5056863;28;20422;-74
2021/03/18 03:00:47;;;;;;;3.97;3.53;;;;;;;0.15;97.81;101343.13;5057266;28;20236;-73
2021/03/18 03:03:13;;;;;;;2.30;2.20;;;;;;;0.11;97.74;101341.88;5057319;28;20421;-73
2021/03/18 03:05:39;;;;;;;7.23;3.40;;;;;;;0.08;97.39;101342.34;5057322;28;20421;-73
2021/03/18 03:08:08;;;;;;;3.47;3.27;;;;;;;0.01;97.48;101346.13;5063922;28;20478;-73
2021/03/18 03:10:34;;;;;;;1.80;1.57;;;;;;;-0.07;97.81;101342.66;5077337;28;20464;-73
2021/03/18 03:13:00;;;;;;;3.30;3.17;;;;;;;-0.13;97.45;101343.56;5077181;28;20416;-73
2021/03/18 03:15:30;;;;;;;2.43;2.23;;;;;;;-0.25;97.55;101339.91;5076806;28;20417;-73
2021/03/18 03:17:59;;;;;;;1.33;1.30;;;;;;;-0.43;97.28;101338.00;5076697;28;20413;-73
2021/03/18 03:20:26;;;;;;;4.20;3.07;;;;;;;-0.55;97.71;101344.25;5077087;28;20412;-73
2021/03/18 03:22:53;;;;;;;3.10;2.90;;;;;;;-0.63;97.57;101351.50;5076245;28;20455;-73
2021/03/18 03:25:19;;;;;;;2.03;1.90;;;;;;;-0.65;98.05;101342.84;5077045;28;20908;-73
2021/03/18 03:27:46;;;;;;;5.17;3.87;;;;;;;-0.71;98.21;101353.63;5076645;28;20448;-73
2021/03/18 03:30:13;;;;;;;4.47;2.67;;;;;;;-0.79;98.10;101349.31;5077096;28;20228;-73
2021/03/18 03:32:40;;;;;;;1.50;1.20;;;;;;;-0.78;98.29;101350.97;5077038;28;20452;-73
2021/03/18 03:35:06;;;;;;;3.60;1.33;;;;;;;-0.77;98.25;101349.09;5077075;28;20424;-73
2021/03/18 03:37:32;;;;;;;1.27;1.27;;;;;;;-0.61;99.29;101346.75;5076648;28;20911;-73
2021/03/18 03:39:57;;;;;;;2.87;2.67;;;;;;;-0.72;99.13;101347.44;5077364;28;20409;-73
2021/03/18 03:42:23;;;;;;;2.37;1.97;;;;;;;-0.78;99.02;101340.25;5076683;28;20178;-73
2021/03/18 03:44:49;;;;;;;2.57;2.37;;;;;;;-0.79;98.95;101341.28;5076738;28;20198;-73
2021/03/18 03:47:14;;;;;;;2.37;2.17;;;;;;;-0.84;98.51;101334.94;5076495;28;20166;-73
2021/03/18 03:49:41;;;;;;;1.00;1.00;;;;;;;-0.86;99.09;101342.38;5076961;28;20488;-73
2021/03/18 03:52:22;;;;;;;3.13;1.43;;;;;;;-0.86;99.05;101345.88;5076723;28;20203;-72
2021/03/18 03:55:49;;;;;;;1.30;1.30;;;;;;;-0.74;99.53;101341.44;5076710;28;20404;-73
2021/03/18 03:58:44;;;;;;;0.97;0.97;;;;;;;-0.73;99.75;101343.09;4974789;28;21261;-73
2021/03/18 04:01:17;;;;;;;1.23;1.23;;;;;;;-0.64;99.63;101343.69;4975215;28;20425;-75
2021/03/18 04:03:46;;;;;;;1.53;1.53;;;;;;;-0.51;99.96;101338.22;5047019;28;20432;-75
2021/03/18 04:06:12;;;;;;;0.90;0.90;;;;;;;-0.45;99.59;101329.31;5075809;28;20471;-75
2021/03/18 04:08:42;;;;;;;0.83;0.83;;;;;;;-0.44;99.58;101333.63;5072391;28;20486;-75
2021/03/18 04:11:08;;;;;;;3.93;3.63;;;;;;;-0.36;99.62;101333.38;5073385;28;20483;-75
2021/03/18 04:13:34;;;;;;;3.30;1.63;;;;;;;-0.29;99.13;101333.31;5073376;28;20914;-75
2021/03/18 04:16:02;;;;;;;2.60;2.40;;;;;;;-0.26;98.94;101329.41;5073389;28;20413;-73
2021/03/18 04:18:33;;;;;;;3.43;3.23;;;;;;;-0.30;99.09;101323.63;5072993;28;20508;-73
2021/03/18 04:20:59;;;;;;;2.77;2.57;;;;;;;-0.30;98.70;101326.31;5073397;28;20478;-73
2021/03/18 04:23:27;;;;;;;3.43;3.17;;;;;;;-0.26;98.73;101314.13;5072405;28;20425;-73
2021/03/18 04:25:55;;;;;;;5.83;3.03;;;;;;;-0.23;98.80;101313.66;5055330;28;20786;-75
2021/03/18 04:28:21;;;;;;;3.20;2.90;;;;;;;-0.25;98.22;101320.31;5072820;28;20428;-73
2021/03/18 04:30:46;;;;;;;2.97;2.87;;;;;;;-0.32;98.33;101315.78;5073084;28;20833;-73
2021/03/18 04:33:12;;;;;;;5.87;5.37;;;;;;;-0.36;98.32;101316.44;5055172;28;20189;-73
2021/03/18 04:35:38;;;;;;;1.70;1.63;;;;;;;-0.37;97.65;101322.88;5073246;28;20181;-75
2021/03/18 04:38:05;;;;;;;3.53;3.23;;;;;;;-0.42;98.05;101328.06;5072969;28;20412;-75
2021/03/18 04:40:31;;;;;;;3.50;3.23;;;;;;;-0.43;97.45;101329.13;5073262;28;20253;-73
2021/03/18 04:42:58;;;;;;;3.43;3.13;;;;;;;-0.57;97.60;101325.69;5073243;28;20421;-75
2021/03/18 04:45:25;;;;;;;22.13;4.93;;;;;;;-0.49;97.77;101324.59;5073043;28;20419;-73
2021/03/18 04:47:52;;;;;;;3.87;2.00;;;;;;;-0.48;97.29;101323.56;5072791;28;20409;-73
2021/03/18 04:50:20;;;;;;;3.77;3.33;;;;;;;-0.49;98.06;101330.78;5073120;28;20564;-73
2021/03/18 04:52:46;;;;;;;1.87;1.77;;;;;;;-0.52;97.87;101319.66;5073254;28;20423;-73
2021/03/18 04:55:12;;;;;;;1.40;1.37;;;;;;;-0.50;98.01;101314.91;5073153;28;20421;-73
2021/03/18 04:57:43;;;;;;;3.53;3.33;;;;;;;-0.50;97.95;101323.78;5073390;28;20456;-73
2021/03/18 05:00:10;;;;;;;1.30;1.23;;;;;;;-0.50;98.13;101317.59;5073799;28;20416;-75
2021/03/18 05:02:38;;;;;;;2.67;2.47;;;;;;;-0.41;97.62;101313.59;5073842;28;20417;-73
2021/03/18 05:05:06;;;;;;;3.00;2.87;;;;;;;-0.38;97.81;101315.84;5073638;28;20444;-74
2021/03/18 05:07:32;;;;;;;2.60;2.50;;;;;;;-0.35;98.23;101312.72;5073156;28;20470;-75
2021/03/18 05:09:58;;;;;;;3.90;3.60;;;;;;;-0.28;97.92;101308.16;5073058;28;20456;-75
2021/03/18 05:12:24;;;;;;;1.10;0.77;;;;;;;-0.37;97.62;101307.56;5073529;28;20932;-75
2021/03/18 05:14:49;;;;;;;4.07;3.73;;;;;;;-0.27;97.65;101314.34;5073365;28;20175;-75
2021/03/18 05:17:17;;;;;;;2.20;2.10;;;;;;;-0.27;97.60;101309.78;5070786;28;20814;-74
2021/03/18 05:19:43;;;;;;;1.70;1.60;;;;;;;-0.25;97.52;101305.03;5052807;28;20198;-75
2021/03/18 05:22:09;;;;;;;2.80;2.30;;;;;;;-0.26;97.77;101307.94;5052245;28;20422;-75
2021/03/18 05:24:38;;;;;;;5.77;4.33;;;;;;;-0.32;97.14;101299.69;5053361;28;20471;-75
2021/03/18 05:27:04;;;;;;;2.63;2.53;;;;;;;-0.32;97.23;101305.06;5052692;28;20180;-73
2021/03/18 05:29:30;;;;;;;6.93;5.90;;;;;;;-0.33;97.07;101310.63;5053046;28;20457;-72
2021/03/18 05:31:55;;;;;;;2.87;2.67;;;;;;;-0.35;97.52;101302.00;5035227;28;20426;-73
2021/03/18 05:34:20;;;;;;;5.93;5.57;;;;;;;-0.37;97.32;101310.25;5053651;28;20182;-72
2021/03/18 05:36:45;;;;;;;3.70;3.50;;;;;;;-0.37;97.57;101301.38;5053927;28;20203;-73
2021/03/18 05:39:11;;;;;;;1.33;1.33;;;;;;;-0.36;97.21;101313.78;5054386;28;20183;-75
2021/03/18 05:41:36;;;;;;;0.90;0.83;;;;;;;-0.32;97.27;101310.41;5054104;28;20198;-75
2021/03/18 05:44:05;;;;;;;1.63;1.53;;;;;;;-0.34;97.71;101309.81;5054198;28;20175;-75
2021/03/18 05:46:31;;;;;;;8.20;1.40;;;;;;;-0.33;97.71;101313.31;5053950;28;20179;-74
2021/03/18 05:48:58;;;;;;;0.77;0.77;;;;;;;-0.38;97.93;101302.44;5053969;28;20418;-75
2021/03/18 05:51:23;;;;;;;1.90;1.80;;;;;;;-0.40;97.48;101308.03;5054240;28;20512;-73
2021/03/18 05:53:50;;;;;;;1.03;1.03;;;;;;;-0.41;97.72;101310.94;5053927;28;20461;-73
2021/03/18 05:56:17;;;;;;;3.53;2.60;;;;;;;-0.46;97.86;101303.50;5053502;28;20647;-73
2021/03/18 05:58:46;;;;;;;5.03;4.73;;;;;;;-0.50;98.05;101312.22;5054230;28;20902;-73
2021/03/18 06:01:12;;;;;;;5.47;5.17;;;;;;;-0.57;98.16;101308.78;5053890;28;20418;-72
2021/03/18 06:03:37;;;;;;;1.00;1.00;;;;;;;-0.69;97.75;101304.09;5054270;28;20457;-75
2021/03/18 06:06:05;;;;;;;4.20;1.43;;;;;;;-0.79;98.18;101313.63;5053846;28;20445;-75
2021/03/18 06:08:33;;;;;;;1.60;1.53;;;;;;;-0.86;98.17;101320.91;5054532;28;20373;-75
2021/03/18 06:10:59;;;;;;;2.10;2.07;;;;;;;-0.95;98.52;101309.59;5054344;28;20465;-74
2021/03/18 06:13:25;;;;;;;2.63;2.50;;;;;;;-1.03;98.53;101310.66;5055330;28;20734;-75
2021/03/18 06:15:50;;;;;;;1.57;1.57;;;;;;;-1.10;98.75;101315.22;5056711;28;20166;-74
2021/03/18 06:18:18;;;;;;;1.43;1.43;;;;;;;-1.14;99.39;101305.16;5053081;28;20179;-74
2021/03/18 06:20:49;;;;;;;0.87;0.87;;;;;;;-1.25;99.15;101301.28;5051424;28;20659;-75
2021/03/18 06:23:15;;;;;;;2.33;2.23;;;;;;;-1.30;99.70;101301.91;5050861;28;20429;-74
2021/03/18 06:25:40;;;;;;;1.10;1.10;;;;;;;-1.30;99.88;101303.78;5051097;28;20406;-74
2021/03/18 06:28:12;;;;;;;1.10;1.10;;;;;;;-1.27;100.00;101304.16;5050921;28;20175;-74
2021/03/18 06:30:38;;;;;;;2.00;0.97;;;;;;;-1.28;100.00;101299.84;5050280;28;20530;-74
2021/03/18 06:33:23;;;;;;;2.33;2.23;;;;;;;-1.27;100.00;101289.94;5050764;28;20418;-75
2021/03/18 06:35:49;;;;;;;3.20;3.00;;;;;;;-1.23;100.00;101300.03;5050989;28;20901;-74
2021/03/18 06:38:15;;;;;;;1.07;0.97;;;;;;;-1.19;100.00;101289.69;5050495;28;21051;-74
2021/03/18 06:40:45;;;;;;;2.27;2.17;;;;;;;-1.22;100.00;101298.16;5051018;28;20960;-74
2021/03/18 06:43:11;;;;;;;3.27;2.13;;;;;;;-1.20;100.00;101294.22;5050571;28;20703;-74
2021/03/18 06:45:40;;;;;;;3.30;3.10;;;;;;;-1.20;100.00;101299.59;5050548;28;20513;-75
2021/03/18 06:48:07;;;;;;;8.47;3.77;;;;;;;-1.16;100.00;101299.16;5050742;28;20533;-74
2021/03/18 06:50:38;;;;;;;0.80;0.80;;;;;;;-1.14;100.00;101303.28;5050564;28;20955;-74
2021/03/18 06:53:24;;;;;;;2.10;2.00;;;;;;;-1.16;100.00;101299.97;5050660;28;20414;-74
2021/03/18 06:55:50;;;;;;;1.67;1.67;;;;;;;-1.12;100.00;101292.34;5050633;28;20414;-74
2021/03/18 06:58:20;;;;;;;2.63;2.53;;;;;;;-1.04;100.00;101294.78;5050256;28;20909;-74
2021/03/18 07:00:49;;;;;;;1.37;1.23;;;;;;;-0.97;100.00;101288.34;5050688;28;20420;-75
2021/03/18 07:03:37;;;;;;;0.93;0.80;;;;;;;-0.96;100.00;101289.19;5050572;28;20466;-74
2021/03/18 07:06:05;;;;;;;1.37;1.27;;;;;;;-0.98;100.00;101286.72;5050430;28;20445;-74
2021/03/18 07:08:36;;;;;;;3.40;3.23;;;;;;;-0.95;100.00;101285.44;5050361;28;20430;-75
2021/03/18 07:11:22;;;;;;;4.43;1.93;;;;;;;-0.89;100.00;101289.94;5050559;28;20547;-74
2021/03/18 07:13:49;;;;;;;3.73;3.53;;;;;;;-0.83;100.00;101289.09;5050546;28;20963;-75
2021/03/18 07:16:14;;;;;;;0.87;0.87;;;;;;;-0.76;100.00;101279.16;5050120;28;20417;-73
2021/03/18 07:18:41;;;;;;;3.40;3.13;;;;;;;-0.70;100.00;101282.84;5050334;28;20421;-73
2021/03/18 07:21:13;;;;;;;1.23;1.23;;;;;;;-0.68;100.00;101289.63;5050174;28;20232;-75
2021/03/18 07:23:40;;;;;;;0.53;0.53;;;;;;;-0.58;100.00;101299.88;5049761;28;20750;-73
2021/03/18 07:26:13;;;;;;;1.43;1.43;;;;;;;-0.56;100.00;101295.13;5050084;28;20762;-75
2021/03/18 07:28:39;;;;;;;4.10;3.23;;;;;;;-0.56;100.00;101295.13;5048908;28;20536;-79
2021/03/18 07:31:05;;;;;;;4.50;4.17;;;;;;;-0.52;100.00;101288.28;5050168;28;20531;-75
2021/03/18 07:33:34;;;;;;;11.43;4.77;;;;;;;-0.41;100.00;101292.13;5050106;28;20418;-75
2021/03/18 07:36:00;;;;;;;2.77;2.57;;;;;;;-0.35;100.00;101293.94;5050311;28;20421;-75
2021/03/18 07:38:29;;;;;;;2.33;2.23;;;;;;;-0.30;100.00;101286.03;5050043;28;20430;-75
2021/03/18 07:40:55;;;;;;;2.50;2.30;;;;;;;-0.37;100.00;101278.06;5050125;28;20598;-75
2021/03/18 07:43:22;;;;;;;2.33;2.23;;;;;;;-0.42;100.00;101290.50;5053950;28;20433;-73
2021/03/18 07:45:47;;;;;;;2.43;2.33;;;;;;;-0.49;100.00;101278.97;5054233;28;20413;-73
2021/03/18 07:48:13;;;;;;;8.47;4.00;;;;;;;-0.46;100.00;101282.03;5053265;28;20429;-75
2021/03/18 07:50:40;;;;;;;3.80;3.47;;;;;;;-0.48;100.00;101283.28;5053840;28;20214;-75
2021/03/18 07:53:10;;;;;;;1.03;0.97;;;;;;;-0.49;100.00;101276.28;5053566;28;20520;-73
2021/03/18 07:55:37;;;;;;;5.10;3.53;;;;;;;-0.40;100.00;101288.41;5053765;28;20405;-75
2021/03/18 07:58:03;;;;;;;3.27;3.07;;;;;;;-0.38;100.00;101275.59;5053333;28;20507;-73
2021/03/18 08:00:32;;;;;;;4.10;2.73;;;;;;;-0.25;100.00;101280.84;5053392;28;20978;-74
2021/03/18 08:03:21;;;;;;;3.20;3.03;;;;;;;-0.27;100.00;101282.94;5053397;28;20187;-75
2021/03/18 08:05:48;;;;;;;6.73;4.63;;;;;;;-0.32;100.00;101277.38;5053552;28;20418;-76
2021/03/18 08:08:31;;;;;;;5.40;4.57;;;;;;;-0.28;100.00;101281.28;5053099;28;20422;-75
2021/03/18 08:11:15;;;;;;;2.60;2.40;;;;;;;-0.20;100.00;101281.00;5053302;28;20461;-75
2021/03/18 08:13:42;;;;;;;2.93;2.77;;;;;;;-0.20;100.00;101289.06;5053331;28;20752;-76
2021/03/18 08:16:31;;;;;;;3.53;2.97;;;;;;;-0.25;100.00;101294.28;5053164;28;20419;-75
2021/03/18 08:18:57;;;;;;;2.23;2.13;;;;;;;-0.18;100.00;101288.84;5053086;28;20928;-75
2021/03/18 08:21:33;;;;;;;3.73;3.40;;;;;;;-0.25;100.00;101286.22;5053518;28;20782;-76
2021/03/18 08:23:59;;;;;;;2.83;2.37;;;;;;;-0.17;100.00;101294.00;5052598;28;20871;-75
2021/03/18 08:26:59;;;;;;;2.83;2.63;;;;;;;-0.04;100.00;101291.19;5052879;28;20453;-75
2021/03/18 08:29:38;;;;;;;9.13;3.63;;;;;;;-0.12;100.00;101286.13;5044494;28;20285;-75
2021/03/18 08:32:05;;;;;;;2.43;2.23;;;;;;;-0.11;100.00;101292.31;5052882;28;20512;-76
2021/03/18 08:35:06;;;;;;;3.77;3.57;;;;;;;-0.12;100.00;101304.91;5053083;28;20908;-76
2021/03/18 08:37:44;;;;;;;3.77;2.10;;;;;;;-0.13;100.00;101300.59;5009968;28;20890;-75
2021/03/18 08:40:18;;;;;;;2.37;2.27;;;;;;;-0.04;100.00;101293.88;5053301;28;20417;-81
2021/03/18 08:42:45;;;;;;;2.23;2.13;;;;;;;0.04;100.00;101305.41;5052639;28;20947;-82
2021/03/18 08:45:35;;;;;;;1.80;1.80;;;;;;;0.15;100.00;101288.56;5052407;28;20525;-77
2021/03/18 08:48:16;;;;;;;1.57;1.57;;;;;;;0.20;100.00;101296.78;5052399;28;20890;-78
2021/03/18 08:50:44;;;;;;;1.67;1.67;;;;;;;0.14;100.00;101297.63;5059718;28;20503;-78
2021/03/18 08:53:31;;;;;;;3.80;3.50;;;;;;;0.19;100.00;101293.25;5066667;28;20421;-82
2021/03/18 08:55:57;;;;;;;5.23;4.60;;;;;;;0.38;100.00;101296.78;5072634;28;20416;-74
2021/03/18 08:58:22;;;;;;;6.00;5.40;;;;;;;0.48;100.00;101299.78;5060482;28;20414;-74
2021/03/18 09:00:48;;;;;;;2.60;2.50;;;;;;;0.42;100.00;101286.41;5052554;28;20195;-73
2021/03/18 09:03:19;;;;;;;1.17;1.17;;;;;;;0.44;100.00;101287.84;5052541;28;20182;-74
2021/03/18 09:05:55;;;;;;;2.17;2.07;;;;;;;0.36;100.00;101282.75;5052548;28;20183;-74
2021/03/18 09:08:35;;;;;;;1.67;1.57;;;;;;;0.44;100.00;101284.34;5052235;28;20438;-74
2021/03/18 09:11:00;;;;;;;2.83;2.73;;;;;;;0.45;99.93;101284.09;5050946;28;20454;-74
2021/03/18 09:13:26;;;;;;;5.97;1.67;;;;;;;0.48;99.97;101280.16;5052247;28;20426;-74
2021/03/18 09:15:53;;;;;;;1.20;0.97;;;;;;;0.53;99.86;101285.66;5052635;28;20266;-76
2021/03/18 09:18:23;;;;;;;3.07;2.87;;;;;;;0.59;99.56;101280.22;5051844;28;20175;-75
2021/03/18 09:21:09;;;;;;;8.40;5.20;;;;;;;0.82;99.48;101276.00;5052148;28;20620;-75
2021/03/18 09:23:45;;;;;;;2.53;1.23;;;;;;;0.84;99.44;101282.78;5033601;28;20485;-74
2021/03/18 09:26:14;;;;;;;1.13;1.13;;;;;;;0.79;98.96;101273.78;5033448;28;20414;-75
2021/03/18 09:28:51;;;;;;;0.87;0.87;;;;;;;0.77;98.12;101278.56;5050473;28;20430;-75
2021/03/18 09:31:24;;;;;;;2.23;1.60;;;;;;;0.84;97.69;101274.72;5051618;28;20468;-75
2021/03/18 09:33:52;;;;;;;2.63;2.43;;;;;;;0.80;96.98;101278.91;5051393;28;20426;-75
2021/03/18 09:36:18;;;;;;;2.97;2.40;;;;;;;0.84;97.13;101266.66;5051099;28;20794;-75
2021/03/18 09:39:13;;;;;;;5.43;4.97;;;;;;;1.00;96.83;101265.19;5051120;28;20510;-76
2021/03/18 09:41:43;;;;;;;4.43;3.40;;;;;;;1.05;96.25;101262.66;5042190;28;20537;-76
2021/03/18 09:44:14;;;;;;;6.37;5.33;;;;;;;1.10;96.15;101257.41;5051337;28;20420;-75
2021/03/18 09:47:00;;;;;;;1.83;1.73;;;;;;;1.25;96.24;101262.38;5050472;28;20492;-75
2021/03/18 09:49:33;;;;;;;2.80;2.57;;;;;;;1.28;95.46;101261.91;5050567;28;20551;-73
2021/03/18 09:51:59;;;;;;;2.57;2.37;;;;;;;1.36;95.52;101260.78;5050962;28;20416;-72
2021/03/18 09:54:27;;;;;;;2.33;2.13;;;;;;;1.34;95.17;101263.69;5051013;28;20924;-72
2021/03/18 09:56:57;;;;;;;1.23;1.17;;;;;;;1.31;94.96;101263.34;5050349;28;20424;-72
2021/03/18 09:59:24;;;;;;;1.67;1.00;;;;;;;1.34;95.31;101262.88;5050883;28;20944;-72
2021/03/18 10:01:50;;;;;;;1.07;1.07;;;;;;;1.39;95.14;101254.94;5050618;28;20905;-76
2021/03/18 10:04:19;;;;;;;0.50;0.50;;;;;;;1.40;94.90;101256.56;5050491;28;20418;-75
2021/03/18 10:06:47;;;;;;;3.17;1.67;;;;;;;1.42;94.67;101257.16;5049782;28;20767;-76
2021/03/18 10:09:20;;;;;;;3.87;3.57;;;;;;;1.51;94.70;101261.16;5050745;28;20520;-73
2021/03/18 10:11:55;;;;;;;4.20;3.90;;;;;;;1.56;94.25;101260.47;5050673;28;20437;-73
2021/03/18 10:14:22;;;;;;;12.60;1.60;;;;;;;1.63;93.37;101259.31;5032833;28;20433;-73
2021/03/18 10:16:51;;;;;;;4.10;3.50;;;;;;;1.61;92.57;101255.22;5050292;28;20879;-72
2021/03/18 10:19:19;;;;;;;2.33;2.23;;;;;;;1.62;92.57;101249.59;5050782;28;20826;-72
2021/03/18 10:21:45;;;;;;;10.93;2.97;;;;;;;1.66;92.34;101258.84;5050370;28;20418;-74
2021/03/18 10:24:13;;;;;;;1.33;1.30;;;;;;;1.69;91.93;101253.00;5055134;28;20429;-72
2021/03/18 10:26:40;;;;;;;3.50;3.20;;;;;;;1.72;92.03;101249.81;5067366;28;20959;-73
2021/03/18 10:29:07;;;;;;;3.37;3.10;;;;;;;1.83;92.52;101250.88;5066855;28;20450;-73
2021/03/18 10:31:33;;;;;;;6.03;5.53;;;;;;;1.82;91.84;101232.28;5052795;28;20483;-73
2021/03/18 10:33:59;;;;;;;2.83;2.63;;;;;;;1.94;92.18;101233.91;5061167;28;20477;-72
2021/03/18 10:36:35;;;;;;;2.63;2.43;;;;;;;2.04;91.95;101230.63;5065917;28;20460;-72
2021/03/18 10:39:03;;;;;;;5.67;3.47;;;;;;;2.05;91.65;101232.28;5069418;28;20174;-78
2021/03/18 10:41:29;;;;;;;9.07;2.70;;;;;;;2.07;90.79;101225.59;5051018;28;20886;-73
2021/03/18 10:43:54;;;;;;;5.60;5.10;;;;;;;2.17;90.61;101219.63;5061658;28;20536;-74
2021/03/18 10:46:33;;;;;;;3.23;3.07;;;;;;;2.22;89.80;101226.97;5070074;28;20170;-72
2021/03/18 10:48:58;;;;;;;5.27;3.87;;;;;;;2.09;88.81;101223.47;5070584;28;20606;-72
2021/03/18 10:51:24;;;;;;;7.07;6.37;;;;;;;2.18;89.40;101225.81;5070808;28;20460;-73
2021/03/18 10:53:51;;;;;;;4.40;4.03;;;;;;;2.24;88.98;101220.28;5070625;28;20586;-71
2021/03/18 10:56:23;;;;;;;6.63;5.27;;;;;;;2.22;88.37;101217.03;5070027;28;20179;-72
2021/03/18 10:58:49;;;;;;;4.83;4.47;;;;;;;2.23;87.40;101224.03;5070475;28;20427;-72
2021/03/18 11:01:22;;;;;;;8.27;5.97;;;;;;;2.41;87.85;101219.56;5070680;28;20980;-72
2021/03/18 11:03:48;;;;;;;4.50;3.33;;;;;;;2.54;88.15;101213.91;5052491;28;20174;-72
2021/03/18 11:06:21;;;;;;;5.10;4.70;;;;;;;2.55;88.43;101212.84;5057281;28;20451;-72
2021/03/18 11:08:52;;;;;;;2.57;2.20;;;;;;;2.53;88.56;101201.47;5055749;28;20487;-72
2021/03/18 11:11:23;;;;;;;5.50;5.00;;;;;;;2.55;88.67;101205.56;5066306;28;20826;-72
2021/03/18 11:13:49;;;;;;;5.80;5.27;;;;;;;2.45;88.37;101199.94;5061844;28;20491;-73
2021/03/18 11:16:24;;;;;;;5.67;5.07;;;;;;;2.43;88.73;101196.69;5067362;28;20665;-72
2021/03/18 11:19:00;;;;;;;2.70;2.50;;;;;;;2.47;88.82;101183.56;5074216;28;20208;-72
2021/03/18 11:21:32;;;;;;;3.43;2.47;;;;;;;2.43;87.93;101174.28;5056267;28;20805;-72
2021/03/18 11:24:17;;;;;;;2.87;2.67;;;;;;;2.48;88.56;101179.81;5062389;28;20490;-72
2021/03/18 11:26:54;;;;;;;3.27;2.97;;;;;;;2.61;88.42;101180.34;5072021;28;20429;-72
2021/03/18 11:29:24;;;;;;;4.50;4.10;;;;;;;2.65;87.65;101173.41;5073985;28;20601;-72
2021/03/18 11:31:55;;;;;;;1.73;1.43;;;;;;;2.65;87.49;101175.28;5074198;28;20448;-72
2021/03/18 11:34:22;;;;;;;2.83;1.57;;;;;;;2.58;87.77;101170.00;5074088;28;20451;-72
2021/03/18 11:36:49;;;;;;;5.63;4.57;;;;;;;2.68;89.11;101161.31;5072160;28;20425;-72
2021/03/18 11:39:20;;;;;;;8.33;5.03;;;;;;;2.65;88.34;101159.91;5065266;28;20448;-72